createdAt,value
2023-05-19T00:01:52.542Z,95.18
2023-05-19T00:04:21.305Z,94.12
2023-05-19T00:06:52.046Z,95.21
2023-05-19T00:09:21.847Z,98.37
2023-05-19T00:11:50.216Z,98.23
2023-05-19T00:14:18.664Z,97.45
2023-05-19T00:16:47.500Z,96.03
2023-05-19T00:19:16.910Z,99.52
2023-05-19T00:21:44.914Z,97.76
2023-05-19T00:24:13.244Z,97.69
2023-05-19T00:26:42.370Z,100.00
2023-05-19T00:29:10.267Z,100.00
2023-05-19T00:31:38.129Z,100.00
2023-05-19T00:34:06.652Z,100.00
2023-05-19T00:36:34.506Z,100.00
2023-05-19T00:39:02.308Z,100.00
2023-05-19T00:41:30.384Z,100.00
2023-05-19T00:43:59.470Z,100.00
2023-05-19T00:46:27.352Z,100.00
2023-05-19T00:48:55.114Z,100.00
2023-05-19T00:51:24.663Z,100.00
2023-05-19T00:53:52.739Z,100.00
2023-05-19T00:56:22.442Z,100.00
2023-05-19T00:58:52.648Z,100.00
2023-05-19T01:01:22.384Z,100.00
2023-05-19T01:03:51.348Z,100.00
2023-05-19T01:06:20.872Z,100.00
2023-05-19T01:08:49.718Z,100.00
2023-05-19T01:11:17.517Z,100.00
2023-05-19T01:13:45.641Z,100.00
2023-05-19T01:16:20.174Z,100.00
2023-05-19T01:18:57.878Z,100.00
2023-05-19T01:21:58.474Z,100.00
2023-05-19T01:24:45.202Z,100.00
2023-05-19T01:27:30.874Z,100.00
2023-05-19T01:30:25.406Z,100.00
2023-05-19T01:32:56.261Z,100.00
2023-05-19T01:35:26.594Z,100.00
2023-05-19T01:37:57.736Z,100.00
2023-05-19T01:40:27.116Z,100.00
2023-05-19T01:42:57.826Z,100.00
2023-05-19T01:45:29.427Z,100.00
2023-05-19T01:47:59.172Z,100.00
2023-05-19T01:50:27.575Z,100.00
2023-05-19T01:52:55.653Z,100.00
2023-05-19T01:55:23.928Z,100.00
2023-05-19T01:58:02.064Z,100.00
2023-05-19T02:00:43.164Z,100.00
2023-05-19T02:03:25.895Z,100.00
2023-05-19T02:05:57.046Z,100.00
2023-05-19T02:08:31.260Z,100.00
2023-05-19T02:11:03.993Z,100.00
2023-05-19T02:13:38.037Z,100.00
2023-05-19T02:16:09.240Z,100.00
2023-05-19T02:18:37.151Z,100.00
2023-05-19T02:21:05.232Z,100.00
2023-05-19T02:23:33.034Z,100.00
2023-05-19T02:26:01.080Z,100.00
2023-05-19T02:28:28.855Z,100.00
2023-05-19T02:30:56.619Z,100.00
2023-05-19T02:33:27.479Z,100.00
2023-05-19T02:35:56.167Z,100.00
2023-05-19T02:38:24.615Z,100.00
2023-05-19T02:40:54.044Z,100.00
2023-05-19T02:43:21.793Z,100.00
2023-05-19T02:45:49.653Z,100.00
2023-05-19T02:48:17.447Z,100.00
2023-05-19T02:50:46.530Z,100.00
2023-05-19T02:53:14.365Z,100.00
2023-05-19T02:55:43.218Z,100.00
2023-05-19T02:58:10.954Z,100.00
2023-05-19T03:00:38.861Z,100.00
2023-05-19T03:03:06.730Z,100.00
2023-05-19T03:05:34.507Z,100.00
2023-05-19T03:08:03.697Z,100.00
2023-05-19T03:10:31.757Z,100.00
2023-05-19T03:12:59.583Z,100.00
2023-05-19T03:15:27.409Z,100.00
2023-05-19T03:17:55.440Z,100.00
2023-05-19T03:20:24.494Z,100.00
2023-05-19T03:22:52.357Z,100.00
2023-05-19T03:25:21.851Z,100.00
2023-05-19T03:27:49.752Z,100.00
2023-05-19T03:30:17.926Z,100.00
2023-05-19T03:32:57.315Z,100.00
2023-05-19T03:35:25.220Z,100.00
2023-05-19T03:37:53.263Z,100.00
2023-05-19T03:40:23.125Z,100.00
2023-05-19T03:42:54.331Z,100.00
2023-05-19T03:45:22.140Z,100.00
2023-05-19T03:47:52.093Z,100.00
2023-05-19T03:50:44.504Z,100.00
2023-05-19T03:53:26.558Z,100.00
2023-05-19T03:55:56.671Z,100.00
2023-05-19T03:58:24.538Z,100.00
2023-05-19T04:00:54.601Z,100.00
2023-05-19T04:03:22.686Z,100.00
2023-05-19T04:05:51.694Z,100.00
2023-05-19T04:08:19.647Z,100.00
2023-05-19T04:10:47.885Z,100.00
2023-05-19T04:13:16.979Z,100.00
2023-05-19T04:15:44.959Z,100.00
2023-05-19T04:18:12.752Z,100.00
2023-05-19T04:20:41.590Z,100.00
2023-05-19T04:23:09.605Z,100.00
2023-05-19T04:25:38.179Z,100.00
2023-05-19T04:28:06.096Z,100.00
2023-05-19T04:30:36.745Z,100.00
2023-05-19T04:33:04.928Z,100.00
2023-05-19T04:35:33.055Z,100.00
2023-05-19T04:38:02.779Z,100.00
2023-05-19T04:40:33.837Z,100.00
2023-05-19T04:43:01.973Z,100.00
2023-05-19T04:45:30.258Z,100.00
2023-05-19T04:48:02.490Z,100.00
2023-05-19T04:50:32.448Z,100.00
2023-05-19T04:53:01.278Z,100.00
2023-05-19T04:55:29.185Z,100.00
2023-05-19T04:57:56.981Z,100.00
2023-05-19T05:00:25.394Z,100.00
2023-05-19T05:02:59.970Z,100.00
2023-05-19T05:05:32.112Z,100.00
2023-05-19T05:08:00.093Z,100.00
2023-05-19T05:10:31.304Z,100.00
2023-05-19T05:13:00.809Z,100.00
2023-05-19T05:15:29.935Z,100.00
2023-05-19T05:18:00.388Z,100.00
2023-05-19T05:20:28.789Z,100.00
2023-05-19T05:22:59.317Z,100.00
2023-05-19T05:25:28.612Z,100.00
2023-05-19T05:27:58.869Z,100.00
2023-05-19T05:30:26.658Z,100.00
2023-05-19T05:32:55.313Z,100.00
2023-05-19T05:35:34.027Z,100.00
2023-05-19T05:38:03.491Z,100.00
2023-05-19T05:40:31.327Z,100.00
2023-05-19T05:42:59.923Z,100.00
2023-05-19T05:45:31.417Z,100.00
2023-05-19T05:48:01.769Z,100.00
2023-05-19T05:50:33.370Z,100.00
2023-05-19T05:53:04.707Z,100.00
2023-05-19T05:55:34.600Z,100.00
2023-05-19T05:58:03.580Z,100.00
2023-05-19T06:00:31.787Z,100.00
2023-05-19T06:03:00.120Z,100.00
2023-05-19T06:05:27.997Z,100.00
2023-05-19T06:07:57.965Z,100.00
2023-05-19T06:10:29.131Z,100.00
2023-05-19T06:12:57.139Z,100.00
2023-05-19T06:15:26.255Z,100.00
2023-05-19T06:18:00.412Z,100.00
2023-05-19T06:20:28.547Z,100.00
2023-05-19T06:22:57.287Z,100.00
2023-05-19T06:25:29.164Z,100.00
2023-05-19T06:27:58.059Z,100.00
2023-05-19T06:30:25.974Z,100.00
2023-05-19T06:33:07.947Z,100.00
2023-05-19T06:35:35.741Z,99.37
2023-05-19T06:38:03.648Z,100.00
2023-05-19T06:40:33.098Z,100.00
2023-05-19T06:43:01.140Z,99.32
2023-05-19T06:45:36.004Z,98.75
2023-05-19T06:48:06.044Z,97.20
2023-05-19T06:50:34.102Z,100.00
2023-05-19T06:53:02.258Z,100.00
2023-05-19T06:55:32.217Z,95.90
2023-05-19T06:58:00.129Z,93.83
2023-05-19T07:00:27.930Z,93.75
2023-05-19T07:02:56.474Z,94.28
2023-05-19T07:05:25.013Z,92.82
2023-05-19T07:07:57.070Z,91.40
2023-05-19T07:10:27.892Z,93.95
2023-05-19T07:12:58.145Z,91.18
2023-05-19T07:15:29.154Z,92.44
2023-05-19T07:17:59.174Z,90.64
2023-05-19T07:20:27.186Z,92.02
2023-05-19T07:22:55.850Z,92.39
2023-05-19T07:25:23.776Z,90.46
2023-05-19T07:27:52.094Z,91.78
2023-05-19T07:30:21.213Z,92.33
2023-05-19T07:32:49.094Z,90.54
2023-05-19T07:35:17.073Z,86.86
2023-05-19T07:37:45.016Z,86.66
2023-05-19T07:40:13.208Z,88.41
2023-05-19T07:42:41.585Z,82.96
2023-05-19T07:45:10.111Z,82.95
2023-05-19T07:47:39.301Z,77.07
2023-05-19T07:50:08.297Z,81.60
2023-05-19T07:52:36.916Z,79.04
2023-05-19T07:55:05.119Z,77.31
2023-05-19T07:57:33.474Z,80.50
2023-05-19T08:00:01.294Z,83.13
2023-05-19T08:02:42.425Z,81.68
2023-05-19T08:05:11.619Z,86.08
2023-05-19T08:07:39.418Z,85.96
2023-05-19T08:10:07.916Z,81.93
2023-05-19T08:12:35.870Z,84.47
2023-05-19T08:15:03.609Z,86.09
2023-05-19T08:17:31.551Z,87.58
2023-05-19T08:20:01.195Z,82.75
2023-05-19T08:22:31.912Z,81.96
2023-05-19T08:24:59.748Z,82.24
2023-05-19T08:27:27.669Z,82.56
2023-05-19T08:29:55.897Z,79.02
2023-05-19T08:32:23.783Z,80.56
2023-05-19T08:34:51.653Z,73.98
2023-05-19T08:37:20.797Z,78.30
2023-05-19T08:39:48.647Z,82.52
2023-05-19T08:42:16.484Z,80.51
2023-05-19T08:44:44.363Z,81.97
2023-05-19T08:47:13.991Z,81.06
2023-05-19T08:49:46.202Z,82.92
2023-05-19T08:52:26.328Z,82.14
2023-05-19T08:55:06.213Z,80.75
2023-05-19T08:57:34.655Z,81.02
2023-05-19T09:00:05.253Z,83.27
2023-05-19T09:02:34.203Z,84.12
2023-05-19T09:05:02.498Z,85.37
2023-05-19T09:07:34.846Z,85.54
2023-05-19T09:10:03.402Z,88.92
2023-05-19T09:12:31.556Z,83.60
2023-05-19T09:14:59.484Z,81.87
2023-05-19T09:17:27.295Z,80.54
2023-05-19T09:19:55.399Z,77.65
2023-05-19T09:22:23.410Z,78.46
2023-05-19T09:24:54.019Z,75.68
2023-05-19T09:27:23.408Z,78.75
2023-05-19T09:29:51.267Z,78.10
2023-05-19T09:32:26.561Z,82.61
2023-05-19T09:34:55.056Z,83.23
2023-05-19T09:37:24.604Z,84.29
2023-05-19T09:39:54.406Z,79.96
2023-05-19T09:42:26.876Z,80.67
2023-05-19T09:45:01.120Z,83.04
2023-05-19T09:47:28.974Z,78.73
2023-05-19T09:49:58.497Z,80.67
2023-05-19T09:52:27.389Z,82.85
2023-05-19T09:54:57.868Z,84.07
2023-05-19T09:57:28.292Z,84.73
2023-05-19T09:59:58.556Z,85.44
2023-05-19T10:02:27.582Z,81.33
2023-05-19T10:04:56.622Z,83.74
2023-05-19T10:07:25.549Z,80.87
2023-05-19T10:09:57.964Z,79.39
2023-05-19T10:12:27.623Z,79.48
2023-05-19T10:14:56.461Z,83.67
2023-05-19T10:17:27.186Z,82.04
2023-05-19T10:19:55.805Z,78.64
2023-05-19T10:22:23.622Z,79.62
2023-05-19T10:24:51.422Z,82.61
2023-05-19T10:27:21.411Z,77.28
2023-05-19T10:29:51.929Z,77.44
2023-05-19T10:32:24.275Z,75.35
2023-05-19T10:35:21.543Z,76.70
2023-05-19T10:37:58.452Z,82.15
2023-05-19T10:40:29.656Z,77.65
2023-05-19T10:43:22.043Z,76.14
2023-05-19T10:45:52.289Z,77.36
2023-05-19T10:48:22.322Z,72.34
2023-05-19T10:50:54.900Z,72.46
2023-05-19T10:53:23.101Z,78.80
2023-05-19T10:55:56.071Z,82.18
2023-05-19T10:58:50.344Z,78.27
2023-05-19T11:01:19.631Z,78.12
2023-05-19T11:03:49.623Z,80.19
2023-05-19T11:06:22.399Z,82.69
2023-05-19T11:08:54.439Z,84.25
2023-05-19T11:11:23.385Z,85.93
2023-05-19T11:13:56.795Z,85.29
2023-05-19T11:16:32.478Z,81.81
2023-05-19T11:19:00.930Z,81.95
2023-05-19T11:21:42.642Z,83.45
2023-05-19T11:24:10.938Z,80.10
2023-05-19T11:26:43.275Z,82.52
2023-05-19T11:29:13.231Z,80.36
2023-05-19T11:31:44.773Z,83.07
2023-05-19T11:34:13.937Z,81.43
2023-05-19T11:36:42.794Z,78.44
2023-05-19T11:39:12.404Z,73.94
2023-05-19T11:41:40.791Z,77.61
2023-05-19T11:44:12.833Z,79.54
2023-05-19T11:46:40.930Z,79.87
2023-05-19T11:49:08.961Z,81.61
2023-05-19T11:51:38.303Z,82.68
2023-05-19T11:54:06.635Z,83.04
2023-05-19T11:56:36.717Z,85.67
2023-05-19T11:59:04.573Z,84.95
2023-05-19T12:01:34.237Z,84.48
2023-05-19T12:04:02.757Z,82.74
2023-05-19T12:06:31.158Z,85.03
2023-05-19T12:08:59.144Z,82.89
2023-05-19T12:11:29.491Z,86.04
2023-05-19T12:13:59.747Z,83.47
2023-05-19T12:16:35.436Z,84.99
2023-05-19T12:19:03.356Z,86.50
2023-05-19T12:21:34.263Z,82.96
2023-05-19T12:24:03.077Z,82.81
2023-05-19T12:26:31.026Z,84.55
2023-05-19T12:29:00.014Z,87.55
2023-05-19T12:31:27.876Z,85.50
2023-05-19T12:33:57.157Z,89.88
2023-05-19T12:36:25.416Z,86.83
2023-05-19T12:38:55.187Z,88.35
2023-05-19T12:41:23.124Z,87.12
2023-05-19T12:43:51.061Z,87.47
2023-05-19T12:46:20.644Z,87.65
2023-05-19T12:48:48.868Z,88.16
2023-05-19T12:51:21.365Z,88.37
2023-05-19T12:53:51.425Z,89.13
2023-05-19T12:56:19.284Z,89.00
2023-05-19T12:58:47.140Z,89.27
2023-05-19T13:01:18.772Z,86.16
2023-05-19T13:03:46.808Z,87.17
2023-05-19T13:06:14.687Z,86.00
2023-05-19T13:08:43.889Z,87.80
2023-05-19T13:11:11.990Z,88.94
2023-05-19T13:13:39.818Z,87.70
2023-05-19T13:16:08.124Z,88.66
2023-05-19T13:18:38.304Z,85.91
2023-05-19T13:21:06.542Z,83.84
2023-05-19T13:23:34.702Z,85.14
2023-05-19T13:26:05.091Z,88.73
2023-05-19T13:28:32.940Z,87.27
2023-05-19T13:31:00.865Z,84.24
2023-05-19T13:33:28.635Z,89.25
2023-05-19T13:35:56.936Z,87.67
2023-05-19T13:38:24.756Z,90.93
2023-05-19T13:40:52.519Z,89.64
2023-05-19T13:43:23.306Z,90.80
2023-05-19T13:45:51.123Z,89.95
2023-05-19T13:48:19.068Z,88.10
2023-05-19T13:50:47.101Z,87.82
2023-05-19T13:53:15.009Z,88.56
2023-05-19T13:55:42.702Z,89.39
2023-05-19T13:58:10.957Z,87.10
2023-05-19T14:00:41.011Z,87.27
2023-05-19T14:03:08.864Z,89.09
2023-05-19T14:05:37.285Z,90.79
2023-05-19T14:08:05.693Z,89.89
2023-05-19T14:10:33.841Z,86.70
2023-05-19T14:15:37.597Z,89.95
2023-05-19T14:18:07.314Z,91.48
2023-05-19T14:20:35.742Z,92.17
2023-05-19T14:23:03.797Z,92.03
2023-05-19T14:25:31.578Z,90.40
2023-05-19T14:27:59.363Z,91.75
2023-05-19T14:30:27.112Z,88.33
2023-05-19T14:32:55.028Z,88.29
2023-05-19T14:35:24.580Z,88.79
2023-05-19T14:37:52.564Z,90.95
2023-05-19T14:40:20.612Z,91.14
2023-05-19T14:42:48.342Z,88.93
2023-05-19T14:45:16.425Z,89.23
2023-05-19T14:47:44.337Z,90.93
2023-05-19T14:50:12.553Z,90.59
2023-05-19T14:52:41.787Z,92.60
2023-05-19T14:55:11.610Z,88.55
2023-05-19T14:57:39.411Z,88.98
2023-05-19T15:00:09.291Z,88.45
2023-05-19T15:02:37.364Z,87.96
2023-05-19T15:05:05.797Z,86.16
2023-05-19T15:07:33.597Z,88.39
2023-05-19T15:10:02.752Z,89.36
2023-05-19T15:12:30.563Z,87.80
2023-05-19T15:14:58.406Z,84.95
2023-05-19T15:17:26.353Z,81.27
2023-05-19T15:19:54.285Z,82.93
2023-05-19T15:22:22.074Z,84.83
2023-05-19T15:24:49.966Z,82.44
2023-05-19T15:27:19.185Z,81.99
2023-05-19T15:29:47.158Z,82.24
2023-05-19T15:32:14.965Z,83.29
2023-05-19T15:34:42.811Z,81.99
2023-05-19T15:37:10.653Z,80.69
2023-05-19T15:39:38.393Z,80.90
2023-05-19T15:42:06.394Z,80.85
2023-05-19T15:44:36.545Z,84.29
2023-05-19T15:47:04.464Z,81.22
2023-05-19T15:49:33.444Z,80.23
2023-05-19T15:52:01.211Z,83.05
2023-05-19T15:54:28.991Z,81.46
2023-05-19T15:56:56.763Z,82.85
2023-05-19T15:59:25.178Z,85.33
2023-05-19T16:01:54.392Z,83.37
2023-05-19T16:04:22.273Z,82.16
2023-05-19T16:06:50.511Z,86.64
2023-05-19T16:09:18.314Z,82.76
2023-05-19T16:11:46.132Z,82.83
2023-05-19T16:14:14.271Z,80.24
2023-05-19T16:16:42.313Z,81.65
2023-05-19T16:19:11.672Z,80.01
2023-05-19T16:21:39.542Z,79.88
2023-05-19T16:24:07.818Z,78.12
2023-05-19T16:26:35.662Z,79.25
2023-05-19T16:29:03.640Z,78.18
2023-05-19T16:31:31.614Z,76.48
2023-05-19T16:33:59.438Z,77.90
2023-05-19T16:36:28.578Z,84.32
2023-05-19T16:38:56.350Z,85.01
2023-05-19T16:41:24.264Z,79.00
2023-05-19T16:43:52.054Z,81.16
2023-05-19T16:46:19.959Z,79.40
2023-05-19T16:48:47.950Z,82.81
2023-05-19T16:51:15.819Z,82.23
2023-05-19T16:53:44.985Z,77.99
2023-05-19T16:56:12.758Z,76.93
2023-05-19T16:58:40.555Z,79.63
2023-05-19T17:01:09.793Z,81.09
2023-05-19T17:03:37.707Z,82.09
2023-05-19T17:06:05.557Z,78.97
2023-05-19T17:08:33.436Z,74.35
2023-05-19T17:11:02.654Z,73.34
2023-05-19T17:13:33.619Z,76.01
2023-05-19T17:16:01.464Z,66.67
2023-05-19T17:18:30.305Z,60.56
2023-05-19T17:20:59.202Z,61.86
2023-05-19T17:23:26.987Z,67.62
2023-05-19T17:25:55.655Z,68.01
2023-05-19T17:28:24.847Z,70.79
2023-05-19T17:30:52.648Z,71.81
2023-05-19T17:33:20.859Z,73.47
2023-05-19T17:35:48.644Z,76.42
2023-05-19T17:38:16.928Z,73.09
2023-05-19T17:40:44.701Z,73.88
2023-05-19T17:43:12.739Z,74.80
2023-05-19T17:45:41.836Z,74.09
2023-05-19T17:48:09.737Z,76.80
2023-05-19T17:50:37.477Z,81.53
2023-05-19T17:53:05.951Z,79.50
2023-05-19T17:55:34.802Z,78.74
2023-05-19T17:58:03.106Z,76.13
2023-05-19T18:00:33.635Z,76.94
2023-05-19T18:03:04.961Z,78.73
2023-05-19T18:05:37.420Z,79.15
2023-05-19T18:08:09.246Z,79.97
2023-05-19T18:10:39.052Z,78.77
2023-05-19T18:13:07.811Z,80.26
2023-05-19T18:15:36.345Z,81.69
2023-05-19T18:18:07.527Z,81.13
2023-05-19T18:20:35.977Z,82.34
2023-05-19T18:23:03.795Z,82.18
2023-05-19T18:25:31.567Z,80.80
2023-05-19T18:27:59.305Z,83.14
2023-05-19T18:30:27.107Z,85.49
2023-05-19T18:32:56.648Z,83.85
2023-05-19T18:35:25.849Z,84.08
2023-05-19T18:37:56.270Z,89.32
2023-05-19T18:40:24.464Z,86.33
2023-05-19T18:42:52.224Z,89.16
2023-05-19T18:45:19.989Z,91.14
2023-05-19T18:47:47.847Z,91.84
2023-05-19T18:50:16.567Z,93.40
2023-05-19T18:52:45.662Z,93.43
2023-05-19T18:55:13.470Z,92.67
2023-05-19T18:57:44.711Z,98.34
2023-05-19T19:00:14.573Z,100.00
2023-05-19T19:02:42.609Z,100.00
2023-05-19T19:05:10.868Z,100.00
2023-05-19T19:07:41.067Z,100.00
2023-05-19T19:10:11.030Z,100.00
2023-05-19T19:12:38.902Z,100.00
2023-05-19T19:15:07.792Z,100.00
2023-05-19T19:17:36.912Z,100.00
2023-05-19T19:20:06.750Z,100.00
2023-05-19T19:22:34.592Z,100.00
2023-05-19T19:25:02.364Z,100.00
2023-05-19T19:27:35.357Z,100.00
2023-05-19T19:30:03.748Z,100.00
2023-05-19T19:32:34.940Z,100.00
2023-05-19T19:35:02.668Z,100.00
2023-05-19T19:37:30.478Z,100.00
2023-05-19T19:39:58.408Z,100.00
2023-05-19T19:42:26.364Z,100.00
2023-05-19T19:44:57.021Z,100.00
2023-05-19T19:47:25.055Z,100.00
2023-05-19T19:49:52.850Z,100.00
2023-05-19T19:52:20.752Z,100.00
2023-05-19T19:54:49.096Z,100.00
2023-05-19T19:57:17.714Z,100.00
2023-05-19T19:59:45.498Z,100.00
2023-05-19T20:02:15.330Z,100.00
2023-05-19T20:04:43.184Z,100.00
2023-05-19T20:07:11.022Z,100.00
2023-05-19T20:09:38.931Z,100.00
2023-05-19T20:12:07.453Z,100.00
2023-05-19T20:14:35.249Z,100.00
2023-05-19T20:17:03.484Z,100.00
2023-05-19T20:19:32.623Z,100.00
2023-05-19T20:22:00.570Z,100.00
2023-05-19T20:24:28.361Z,100.00
2023-05-19T20:26:56.525Z,100.00
2023-05-19T20:29:24.463Z,100.00
2023-05-19T20:31:52.272Z,100.00
2023-05-19T20:34:20.352Z,100.00
2023-05-19T20:36:49.621Z,100.00
2023-05-19T20:39:17.452Z,100.00
2023-05-19T20:41:45.341Z,100.00
2023-05-19T20:44:13.091Z,100.00
2023-05-19T20:46:41.167Z,100.00
2023-05-19T20:49:08.923Z,100.00
2023-05-19T20:51:36.936Z,100.00
2023-05-19T20:54:07.312Z,100.00
2023-05-19T20:56:35.376Z,100.00
2023-05-19T20:59:03.976Z,100.00
2023-05-19T21:01:31.966Z,100.00
2023-05-19T21:03:59.792Z,100.00
2023-05-19T21:06:27.591Z,100.00
2023-05-19T21:08:55.436Z,100.00
2023-05-19T21:11:24.682Z,100.00
2023-05-19T21:13:52.409Z,100.00
2023-05-19T21:16:20.214Z,100.00
2023-05-19T21:18:48.119Z,100.00
2023-05-19T21:21:15.912Z,100.00
2023-05-19T21:23:44.063Z,100.00
2023-05-19T21:26:11.927Z,100.00
2023-05-19T21:28:41.064Z,100.00
2023-05-19T21:31:08.949Z,100.00
2023-05-19T21:33:36.886Z,100.00
2023-05-19T21:36:04.854Z,100.00
2023-05-19T21:38:32.679Z,100.00
2023-05-19T21:41:00.606Z,100.00
2023-05-19T21:43:28.491Z,100.00
2023-05-19T21:45:57.708Z,100.00
2023-05-19T21:48:25.515Z,100.00
2023-05-19T21:50:54.446Z,100.00
2023-05-19T21:53:22.258Z,100.00
2023-05-19T21:55:50.057Z,100.00
2023-05-19T21:58:18.236Z,100.00
2023-05-19T22:00:49.787Z,100.00
2023-05-19T22:03:19.570Z,100.00
2023-05-19T22:05:50.055Z,100.00
2023-05-19T22:08:18.948Z,100.00
2023-05-19T22:10:49.986Z,100.00
2023-05-19T22:13:17.767Z,100.00
2023-05-19T22:15:46.046Z,100.00
2023-05-19T22:18:13.855Z,100.00
2023-05-19T22:20:43.116Z,100.00
2023-05-19T22:23:11.316Z,100.00
2023-05-19T22:25:39.107Z,100.00
2023-05-19T22:28:08.107Z,100.00
2023-05-19T22:30:40.707Z,100.00
2023-05-19T22:33:09.426Z,100.00
2023-05-19T22:35:37.289Z,100.00
2023-05-19T22:38:07.501Z,100.00
2023-05-19T22:40:37.551Z,100.00
2023-05-19T22:43:05.552Z,100.00
2023-05-19T22:45:35.542Z,100.00
2023-05-19T22:48:03.710Z,100.00
2023-05-19T22:50:31.439Z,100.00
2023-05-19T22:52:59.213Z,100.00
2023-05-19T22:55:28.341Z,100.00
2023-05-19T22:57:56.234Z,100.00
2023-05-19T23:00:24.088Z,100.00
2023-05-19T23:02:51.915Z,100.00
2023-05-19T23:05:19.688Z,100.00
2023-05-19T23:07:47.548Z,100.00
2023-05-19T23:10:15.417Z,100.00
2023-05-19T23:12:44.517Z,100.00
2023-05-19T23:15:12.634Z,100.00
2023-05-19T23:17:40.487Z,100.00
2023-05-19T23:20:09.151Z,100.00
2023-05-19T23:22:36.941Z,100.00
2023-05-19T23:25:07.375Z,100.00
2023-05-19T23:27:36.164Z,100.00
2023-05-19T23:30:06.315Z,100.00
2023-05-19T23:32:34.168Z,100.00
2023-05-19T23:35:10.456Z,100.00
2023-05-19T23:37:38.287Z,100.00
2023-05-19T23:40:07.553Z,100.00
2023-05-19T23:42:35.746Z,100.00
2023-05-19T23:45:05.124Z,100.00
2023-05-19T23:47:32.982Z,100.00
2023-05-19T23:50:01.140Z,100.00
2023-05-19T23:52:28.968Z,100.00
2023-05-19T23:54:56.695Z,100.00
2023-05-19T23:57:24.494Z,100.00
2023-05-19T23:59:52.505Z,100.00
